• Join FlightAware (Why Join?)
  • Login
  • US Flag 
04:39AM EDT


 

Airport Tracker/Info


-or-


 

Live Flight TrackerFlight Track Log ✈ ASQ6151 ✈ 22-May-2013 ✈ KORD - KPIA

Flight Track Log - Related Links

Times and Time Zones

All times are in EDT time to prevent confusion due to time zone crossing. See the ASQ6151 flight status page for this flight to view local times or setup timezone preferences in your user account.

Time Position Orientation Groundspeed Altitude Reporting Facility
EDT Latitude Longitude Course Direction KTS MPH feet Rate Location/Type
12:29AM 42.0333 -87.9667 270° West 191 220 3,700  Level Chicago TRACON
12:30AM 42.0500 -88.0500 285° West 255 293 5,600 1,200 Climbing Chicago TRACON
12:31AM 42.0500 -88.1333 270° West 265 305 6,100 720 Climbing Chicago TRACON
12:32AM 42.0500 -88.2333 270° West 262 302 7,000 900 Climbing Chicago TRACON
12:33AM 42.0494 -88.3325 270° West 269 310 8,000 420 Climbing Chicago Center
12:34AM 41.9669 -88.2433 270° West  Level FlightAware Approximate
12:34AM 42.0458 -88.4347 267° West 276 318 7,900  Level Chicago Center
12:35AM 42.0422 -88.5286 267° West 258 297 8,000  Climbing Chicago Center
12:36AM 42.0394 -88.6317 268° West 272 313 8,000  Level Chicago Center
12:37AM 42.0358 -88.7411 267° West 292 336 8,000  Level Chicago Center
12:38AM 42.0106 -88.8389 251° West 290 334 8,000  Level Chicago Center
12:39AM 41.9589 -88.9097 226° Southwest 281 323 8,100  Climbing Chicago Center
12:40AM 41.8753 -88.9683 208° Southwest 284 327 8,000 -60 Descending Chicago Center
12:41AM 41.8022 -89.0183 207° Southwest 295 339 8,000  Level Chicago Center
12:42AM 41.7328 -89.0686 208° Southwest 290 334 8,000  Level Chicago Center
12:43AM 41.6675 -89.1136 207° Southwest 272 313 8,100  Climbing Chicago Center
12:44AM 41.5922 -89.1664 208° Southwest 305 351 8,000 -60 Descending Chicago Center
12:45AM 41.5222 -89.2158 208° Southwest 285 328 8,000  Level Chicago Center
12:46AM 41.4589 -89.2611 208° Southwest 263 303 8,000  Level Chicago Center
12:47AM 41.3883 -89.3086 207° Southwest 276 318 8,000  Level Chicago Center
12:48AM 41.3175 -89.3578 208° Southwest 285 328 8,000  Level Chicago Center
12:49AM 41.2467 -89.4056 207° Southwest 286 329 8,000 -600 Level Chicago Center
12:50AM 41.1761 -89.4358 198° South 271 312 6,900 -1,140 Descending Chicago Center
12:51AM 41.1050 -89.4642 197° South 268 308 5,700 -1,260 Descending Chicago Center
12:52AM 41.0344 -89.4903 196° South 264 304 4,400 -1,260 Descending Chicago Center
12:53AM 40.9656 -89.5192 198° South 260 299 3,200 -960 Descending Chicago Center
12:54AM 40.8972 -89.5467 197° South 259 298 2,500 -420 Descending Chicago Center
12:55AM 40.8300 -89.5725 196° South 255 293 2,400 -60 Descending Chicago Center
12:56AM 40.7608 -89.5994 196° South 254 292 2,400  Level Chicago Center